Time;durP1;ratioP1;P1;durP2;ratioP2;P2;SDS_P1;SDS_P2;PMS_P1;PMS_P2;Temp;Humidity;BMP_temperature;BMP_pressure;BME280_temperature;BME280_humidity;BME280_pressure;Samples;Min_cycle;Max_cycle;Signal;HPM_P1;HPM_P2
2023/09/23 00:01:44;;;;;;;5.68;3.15;;;;;;;11.10;93.08;100387.09;4967320;28;19921;-79
2023/09/23 00:04:10;;;;;;;6.75;3.08;;;;;;;11.12;93.22;100390.31;4990250;28;20027;-80
2023/09/23 00:06:35;;;;;;;4.18;3.60;;;;;;;11.16;93.74;100399.38;4967596;28;20038;-79
2023/09/23 00:09:02;;;;;;;4.55;3.40;;;;;;;11.18;93.60;100391.88;4951296;28;20042;-78
2023/09/23 00:11:28;;;;;;;4.35;3.58;;;;;;;11.20;93.77;100400.41;4968124;28;20070;-78
2023/09/23 00:13:54;;;;;;;3.90;3.22;;;;;;;11.25;93.49;100396.09;4972061;28;20126;-79
2023/09/23 00:16:21;;;;;;;4.15;3.65;;;;;;;11.27;93.78;100394.72;4962429;28;20872;-80
2023/09/23 00:18:47;;;;;;;5.78;4.00;;;;;;;11.32;94.28;100396.56;4983197;28;20050;-80
2023/09/23 00:21:13;;;;;;;;;;;;;;;11.37;94.61;100399.97;4980696;28;20054;-82
2023/09/23 00:23:39;;;;;;;4.88;3.92;;;;;;;11.35;95.10;100399.47;4982642;28;19925;-79
2023/09/23 00:26:10;;;;;;;5.32;3.53;;;;;;;11.38;94.59;100403.47;4965298;28;20034;-81
2023/09/23 00:28:36;;;;;;;6.03;3.67;;;;;;;11.42;94.38;100401.81;4979512;28;20034;-81
2023/09/23 00:31:14;;;;;;;4.00;3.58;;;;;;;11.46;94.73;100408.22;4979509;28;20066;-79
2023/09/23 00:33:41;;;;;;;5.20;3.58;;;;;;;11.47;94.94;100410.63;4980769;28;20074;-80
2023/09/23 00:36:11;;;;;;;4.32;3.60;;;;;;;11.52;94.91;100417.03;4964548;28;20042;-79
2023/09/23 00:38:37;;;;;;;5.35;4.53;;;;;;;11.53;95.63;100416.75;4959113;28;20458;-80
2023/09/23 00:41:08;;;;;;;5.80;4.75;;;;;;;11.60;96.28;100441.34;4955945;28;20041;-79
2023/09/23 00:43:37;;;;;;;5.05;4.55;;;;;;;11.64;96.67;100452.28;4957855;28;20037;-79
2023/09/23 00:46:06;;;;;;;6.70;4.65;;;;;;;11.68;96.71;100459.50;4954897;28;20510;-78
2023/09/23 00:48:39;;;;;;;5.35;4.20;;;;;;;11.68;96.72;100469.44;4971561;28;20113;-78
2023/09/23 00:51:07;;;;;;;5.93;4.35;;;;;;;11.70;97.14;100477.97;4975402;28;20035;-79
2023/09/23 00:53:35;;;;;;;5.78;4.43;;;;;;;11.72;97.12;100473.97;4971862;28;20504;-80
2023/09/23 00:56:02;;;;;;;5.35;4.03;;;;;;;11.75;97.33;100475.25;4969438;28;20054;-79
2023/09/23 00:58:29;;;;;;;9.00;4.05;;;;;;;11.77;97.42;100473.88;4988012;28;20470;-79
2023/09/23 01:00:55;;;;;;;5.22;4.25;;;;;;;11.74;97.73;100460.25;4952216;28;20756;-79
2023/09/23 01:03:22;;;;;;;6.63;4.18;;;;;;;11.77;97.37;100471.19;4968607;28;20419;-77
2023/09/23 01:06:03;;;;;;;4.72;3.78;;;;;;;11.79;97.11;100462.09;4953911;28;20485;-78
2023/09/23 01:08:32;;;;;;;5.07;3.38;;;;;;;11.79;96.97;100459.41;4962788;28;20558;-79
2023/09/23 01:10:59;;;;;;;5.47;3.75;;;;;;;11.79;96.87;100464.78;4984481;28;20122;-78
2023/09/23 01:13:29;;;;;;;4.78;3.63;;;;;;;11.80;96.82;100461.00;4973997;28;20066;-79
2023/09/23 01:15:55;;;;;;;6.22;3.42;;;;;;;11.80;96.66;100461.00;4962330;28;20041;-78
2023/09/23 01:18:22;;;;;;;6.10;3.70;;;;;;;11.81;96.74;100457.25;4973740;28;20047;-77
2023/09/23 01:20:51;;;;;;;5.30;4.13;;;;;;;11.82;97.18;100450.81;4954430;28;20117;-77
2023/09/23 01:23:17;;;;;;;6.75;3.92;;;;;;;11.79;97.42;100454.03;4970350;28;20059;-79
2023/09/23 01:25:43;;;;;;;6.68;4.00;;;;;;;11.80;97.07;100455.63;4954396;28;20081;-77
2023/09/23 01:28:11;;;;;;;;;;;;;;;11.82;97.22;100448.13;4957164;28;20038;-78
2023/09/23 01:30:41;;;;;;;4.40;3.50;;;;;;;11.82;97.32;100450.81;4950356;28;19985;-78
2023/09/23 01:33:08;;;;;;;4.82;3.63;;;;;;;11.81;97.97;100447.31;4969101;28;20071;-79
2023/09/23 01:35:35;;;;;;;6.18;4.07;;;;;;;11.81;98.20;100441.16;4972053;28;20046;-78
2023/09/23 01:38:02;;;;;;;9.10;4.07;;;;;;;11.83;98.27;100449.72;4972320;28;20518;-78
2023/09/23 01:40:30;;;;;;;4.47;4.07;;;;;;;11.86;98.67;100459.91;4969327;28;20772;-78
2023/09/23 01:42:57;;;;;;;5.70;3.83;;;;;;;11.88;98.64;100449.69;4967531;28;20042;-79
2023/09/23 01:45:25;;;;;;;7.03;4.15;;;;;;;11.89;98.84;100449.38;4985878;28;20057;-78
2023/09/23 01:47:56;;;;;;;6.63;4.45;;;;;;;11.93;99.18;100463.03;4975600;28;20035;-80
2023/09/23 01:50:27;;;;;;;9.55;5.15;;;;;;;11.96;99.00;100470.50;4989071;28;20058;-80
2023/09/23 01:52:59;;;;;;;7.45;5.57;;;;;;;12.01;99.19;100471.25;4968901;28;20031;-80
2023/09/23 01:55:25;;;;;;;6.78;5.32;;;;;;;12.11;99.55;100488.31;4994463;28;20062;-80
2023/09/23 01:57:51;;;;;;;8.88;5.85;;;;;;;12.10;99.55;100482.16;4975316;28;20039;-81
2023/09/23 02:00:28;;;;;;;8.20;6.03;;;;;;;12.12;99.71;100487.22;4970735;28;20563;-78
2023/09/23 02:02:55;;;;;;;7.57;5.85;;;;;;;12.11;99.67;100467.66;4982708;28;20042;-81
2023/09/23 02:05:24;;;;;;;8.68;6.82;;;;;;;12.12;99.75;100466.56;4964286;28;20081;-81
2023/09/23 02:07:50;;;;;;;8.13;7.18;;;;;;;12.17;100.00;100482.63;4960992;28;20038;-81
2023/09/23 02:10:21;;;;;;;10.50;7.18;;;;;;;12.19;100.00;100467.03;4959614;28;20102;-79
2023/09/23 02:12:48;;;;;;;6.97;6.15;;;;;;;12.17;100.00;100463.81;4961438;28;20082;-78
2023/09/23 02:15:14;;;;;;;8.00;6.32;;;;;;;12.15;100.00;100457.94;4980037;28;20039;-80
2023/09/23 02:17:44;;;;;;;10.50;6.72;;;;;;;12.17;100.00;100453.09;4991838;28;20038;-79
2023/09/23 02:20:22;;;;;;;8.25;6.63;;;;;;;12.16;99.84;100462.22;4975650;28;20034;-80
2023/09/23 02:22:54;;;;;;;9.52;7.40;;;;;;;12.16;100.00;100470.28;4978264;28;20512;-79
2023/09/23 02:25:24;;;;;;;8.85;6.18;;;;;;;12.19;100.00;100468.91;4965361;28;20046;-80
2023/09/23 02:27:51;;;;;;;8.05;6.20;;;;;;;12.19;99.51;100474.25;4986834;28;20033;-79
2023/09/23 02:30:18;;;;;;;7.28;6.57;;;;;;;12.21;99.32;100483.66;4978179;28;20038;-79
2023/09/23 02:32:46;;;;;;;10.10;7.55;;;;;;;12.24;99.98;100493.81;4960990;28;20125;-79
2023/09/23 02:35:15;;;;;;;11.00;7.15;;;;;;;12.28;100.00;100499.41;4960196;28;20675;-78
2023/09/23 02:37:42;;;;;;;6.95;6.00;;;;;;;12.31;100.00;100493.47;4958678;28;20039;-79
2023/09/23 02:40:12;;;;;;;7.15;5.30;;;;;;;12.31;99.81;100504.19;4977924;28;20050;-80
2023/09/23 02:42:42;;;;;;;5.80;4.32;;;;;;;12.31;99.32;100504.19;4961065;28;20060;-79
2023/09/23 02:45:09;;;;;;;9.98;7.05;;;;;;;12.30;99.81;100503.41;4976914;28;20034;-78
2023/09/23 02:47:37;;;;;;;10.00;6.30;;;;;;;12.31;99.10;100504.19;4979310;28;20044;-79
2023/09/23 02:50:10;;;;;;;6.13;5.50;;;;;;;12.30;98.83;100508.78;4960789;28;20575;-79
2023/09/23 02:52:38;;;;;;;7.13;6.38;;;;;;;12.28;98.76;100510.16;4965595;28;20101;-79
2023/09/23 02:55:12;;;;;;;7.53;6.82;;;;;;;12.27;98.69;100519.31;4993516;28;20039;-80
2023/09/23 02:57:46;;;;;;;8.02;5.63;;;;;;;12.26;98.63;100521.19;4978447;28;20048;-80
2023/09/23 03:00:20;;;;;;;7.57;5.88;;;;;;;12.26;98.40;100521.19;4989718;28;20125;-80
2023/09/23 03:02:58;;;;;;;6.63;5.93;;;;;;;12.25;98.24;100522.25;4976469;28;20043;-78
2023/09/23 03:05:28;;;;;;;10.30;6.35;;;;;;;12.26;98.29;100515.00;4978034;28;20035;-79
2023/09/23 03:07:58;;;;;;;8.25;6.55;;;;;;;12.25;98.35;100522.25;4957730;28;20047;-80
2023/09/23 03:10:39;;;;;;;8.13;5.43;;;;;;;12.24;98.16;100520.66;4977809;28;20037;-79
2023/09/23 03:13:10;;;;;;;8.40;7.45;;;;;;;12.27;98.93;100525.47;4994135;28;20034;-81
2023/09/23 03:15:58;;;;;;;9.90;7.32;;;;;;;12.27;99.60;100532.72;4976545;28;20038;-78
2023/09/23 03:18:29;;;;;;;7.28;6.47;;;;;;;12.30;99.83;100530.25;4974179;28;20039;-80
2023/09/23 03:20:57;;;;;;;7.90;6.95;;;;;;;12.34;99.97;100540.44;4975599;28;20115;-80
2023/09/23 03:23:23;;;;;;;6.82;6.13;;;;;;;12.35;100.00;100539.34;4980526;28;20031;-80
2023/09/23 03:25:51;;;;;;;7.32;6.22;;;;;;;12.37;100.00;100550.59;4962049;28;20467;-79
2023/09/23 03:28:17;;;;;;;6.13;5.40;;;;;;;12.35;99.51;100553.56;4961779;28;20030;-80
2023/09/23 03:30:47;;;;;;;8.95;6.20;;;;;;;12.37;99.28;100550.59;4973226;28;20126;-79
2023/09/23 03:33:18;;;;;;;6.40;5.70;;;;;;;12.37;99.01;100555.97;4966264;28;20039;-76
2023/09/23 03:35:44;;;;;;;7.35;5.50;;;;;;;12.39;99.27;100548.41;4965261;28;20026;-81
2023/09/23 03:38:11;;;;;;;;;;;;;;;12.42;99.68;100558.59;4978942;28;20070;-81
2023/09/23 03:40:38;;;;;;;8.10;5.55;;;;;;;12.41;100.00;100565.06;4968442;28;19918;-78
2023/09/23 03:43:04;;;;;;;6.68;5.13;;;;;;;12.41;100.00;100562.38;4983177;28;20035;-79
2023/09/23 03:45:38;;;;;;;6.70;5.40;;;;;;;12.39;99.87;100564.53;4980803;28;20038;-78
2023/09/23 03:48:04;;;;;;;5.60;4.88;;;;;;;12.39;100.00;100569.91;4964038;28;20046;-80
2023/09/23 03:50:32;;;;;;;;;;;;;;;12.42;100.00;100566.66;4961835;28;20031;-79
2023/09/23 03:52:58;;;;;;;6.60;4.60;;;;;;;12.39;100.00;100570.69;4967366;28;19920;-80
2023/09/23 03:55:24;;;;;;;;;;;;;;;12.42;100.00;100580.09;4973292;28;20043;-79
2023/09/23 03:57:50;;;;;;;6.93;5.38;;;;;;;12.41;100.00;100567.75;4980812;28;19914;-79
2023/09/23 04:00:16;;;;;;;;;;;;;;;12.42;99.86;100572.81;4970029;28;20035;-80
2023/09/23 04:02:49;;;;;;;6.32;4.63;;;;;;;12.41;99.88;100578.50;4968713;28;19940;-80
2023/09/23 04:05:15;;;;;;;4.97;4.35;;;;;;;12.42;100.00;100597.00;4969088;28;20039;-80
2023/09/23 04:07:49;;;;;;;6.18;4.47;;;;;;;12.41;99.81;100587.34;4978596;28;20123;-81
2023/09/23 04:10:19;;;;;;;5.40;4.85;;;;;;;12.41;99.64;100595.41;4983208;28;20042;-79
2023/09/23 04:12:46;;;;;;;10.25;5.18;;;;;;;12.41;99.77;100597.28;4982303;28;20066;-79
2023/09/23 04:15:12;;;;;;;7.10;4.75;;;;;;;12.42;99.59;100591.63;4969683;28;20058;-80
2023/09/23 04:17:38;;;;;;;;;;;;;;;12.43;100.00;100598.59;4984784;28;20050;-79
2023/09/23 04:20:14;;;;;;;6.35;4.47;;;;;;;12.41;100.00;100594.59;4978045;28;19967;-79
2023/09/23 04:22:42;;;;;;;6.70;5.85;;;;;;;12.41;100.00;100594.59;4987914;28;20404;-80
2023/09/23 04:25:09;;;;;;;7.00;5.55;;;;;;;12.39;100.00;100599.44;4980167;28;20039;-79
2023/09/23 04:27:36;;;;;;;;;;;;;;;12.39;100.00;100613.66;4953772;28;20119;-80
2023/09/23 04:30:09;;;;;;;9.80;6.93;;;;;;;12.37;100.00;100621.22;4958616;28;19964;-80
2023/09/23 04:32:42;;;;;;;11.02;6.47;;;;;;;12.38;100.00;100622.81;4991586;28;20031;-81
2023/09/23 04:35:09;;;;;;;8.45;6.72;;;;;;;12.37;100.00;100633.84;4960962;28;20566;-78
2023/09/23 04:37:38;;;;;;;8.60;6.70;;;;;;;12.36;99.61;100629.56;4950932;28;20117;-80
2023/09/23 04:40:11;;;;;;;9.43;7.80;;;;;;;12.36;99.24;100637.63;4975614;28;20035;-79
2023/09/23 04:42:39;;;;;;;11.73;8.93;;;;;;;12.35;99.08;100650.25;4948685;28;20037;-80
2023/09/23 04:45:05;;;;;;;11.80;8.80;;;;;;;12.34;99.41;100645.16;4994207;28;20038;-78
2023/09/23 04:47:37;;;;;;;;;;;;;;;12.33;99.58;100649.75;4983098;28;20514;-79
2023/09/23 04:50:05;;;;;;;9.98;7.72;;;;;;;12.28;99.30;100655.94;4970455;28;19995;-78
2023/09/23 04:52:34;;;;;;;11.93;8.82;;;;;;;12.28;99.89;100655.94;4945099;28;20049;-78
2023/09/23 04:55:02;;;;;;;16.02;10.82;;;;;;;12.28;100.00;100653.25;4978143;28;20038;-80
2023/09/23 04:57:28;;;;;;;12.23;8.35;;;;;;;12.28;99.90;100661.31;4997399;28;20035;-80
2023/09/23 04:59:54;;;;;;;;;;;;;;;12.32;100.00;100660.75;4976791;28;20042;-81
2023/09/23 05:02:21;;;;;;;11.10;8.60;;;;;;;12.29;100.00;100678.22;4979457;28;19922;-80
2023/09/23 05:04:47;;;;;;;14.68;10.35;;;;;;;12.33;100.00;100687.34;4951809;28;20026;-80
2023/09/23 05:07:14;;;;;;;15.18;10.70;;;;;;;12.36;100.00;100683.28;4982468;28;20039;-80
2023/09/23 05:09:41;;;;;;;18.75;14.27;;;;;;;12.36;100.00;100684.06;4952095;28;20050;-82
2023/09/23 05:12:09;;;;;;;21.60;14.25;;;;;;;12.39;100.00;100680.00;4982530;28;20477;-79
2023/09/23 05:14:34;;;;;;;18.33;13.43;;;;;;;12.38;100.00;100681.09;4961160;28;20038;-80
2023/09/23 05:17:00;;;;;;;;;;;;;;;12.40;100.00;100687.81;4969928;28;20078;-80
2023/09/23 05:19:27;;;;;;;20.38;15.30;;;;;;;12.39;100.00;100690.75;4965889;28;19914;-81
2023/09/23 05:21:53;;;;;;;20.52;15.63;;;;;;;12.38;100.00;100691.84;4983404;28;20038;-81
2023/09/23 05:24:20;;;;;;;;;;;;;;;12.41;100.00;100688.59;4964514;28;20035;-79
2023/09/23 05:26:49;;;;;;;18.73;14.00;;;;;;;12.39;100.00;100698.81;4978246;28;19925;-80
2023/09/23 05:29:15;;;;;;;19.00;14.52;;;;;;;12.39;100.00;100699.59;4964289;28;20070;-79
2023/09/23 05:31:41;;;;;;;23.25;15.63;;;;;;;12.38;100.00;100700.69;4983747;28;20038;-80
2023/09/23 05:34:07;;;;;;;20.42;15.70;;;;;;;12.39;100.00;100714.91;4963815;28;20065;-79
2023/09/23 05:36:32;;;;;;;;;;;;;;;12.38;100.00;100713.31;4979532;28;20503;-80
2023/09/23 05:38:59;;;;;;;19.55;14.52;;;;;;;12.34;100.00;100717.69;4970968;28;20017;-80
2023/09/23 05:41:25;;;;;;;18.80;13.93;;;;;;;12.35;100.00;100727.31;4971216;28;20034;-80
2023/09/23 05:43:52;;;;;;;;;;;;;;;12.34;100.00;100729.22;4988976;28;20054;-79
2023/09/23 05:46:21;;;;;;;15.80;12.32;;;;;;;12.30;100.00;100737.03;4984163;28;20375;-81
2023/09/23 05:48:50;;;;;;;16.67;13.52;;;;;;;12.25;99.62;100731.69;4963070;28;20061;-82
2023/09/23 05:51:16;;;;;;;14.98;11.77;;;;;;;12.24;99.61;100735.44;4997072;28;20049;-80
2023/09/23 05:53:43;;;;;;;14.90;11.65;;;;;;;12.22;99.43;100743.00;4971770;28;20034;-80
2023/09/23 05:56:10;;;;;;;18.65;13.77;;;;;;;12.20;99.49;100747.84;4983854;28;20030;-80
2023/09/23 05:58:35;;;;;;;19.75;14.27;;;;;;;12.20;99.52;100750.53;4965784;28;20041;-80
2023/09/23 06:01:02;;;;;;;17.42;13.43;;;;;;;12.24;99.66;100746.19;5003831;28;20038;-79
2023/09/23 06:03:28;;;;;;;16.25;12.55;;;;;;;12.29;99.66;100756.09;4981635;28;20094;-81
2023/09/23 06:05:53;;;;;;;23.38;15.32;;;;;;;12.35;100.00;100762.25;4975209;28;20034;-79
2023/09/23 06:08:19;;;;;;;23.30;15.80;;;;;;;12.38;100.00;100769.72;4992693;28;20041;-80
2023/09/23 06:10:45;;;;;;;22.92;15.60;;;;;;;12.40;100.00;100773.75;4993734;28;20038;-82
2023/09/23 06:13:11;;;;;;;19.40;14.30;;;;;;;12.43;100.00;100773.19;4989038;28;20046;-80
2023/09/23 06:15:37;;;;;;;24.73;16.40;;;;;;;12.44;100.00;100768.59;4986678;28;20050;-81
2023/09/23 06:18:03;;;;;;;;;;;;;;;12.49;100.00;100777.44;4970596;28;20039;-80
2023/09/23 06:20:29;;;;;;;20.50;15.07;;;;;;;12.51;100.00;100777.94;4995740;28;19946;-82
2023/09/23 06:22:54;;;;;;;21.50;14.50;;;;;;;12.55;100.00;100788.94;4990334;28;20031;-81
2023/09/23 06:25:20;;;;;;;;;;;;;;;12.59;100.00;100784.59;4976332;28;20041;-82
2023/09/23 06:27:46;;;;;;;22.40;14.57;;;;;;;12.61;100.00;100795.88;4993004;28;19925;-80
2023/09/23 06:30:15;;;;;;;;;;;;;;;12.69;100.00;100799.84;4999180;28;20087;-81
2023/09/23 06:32:44;;;;;;;24.77;15.50;;;;;;;12.75;100.00;100799.50;4998247;28;19973;-80
2023/09/23 06:35:11;;;;;;;26.67;17.42;;;;;;;12.84;100.00;100794.31;4979725;28;20077;-82
2023/09/23 06:37:37;;;;;;;;;;;;;;;12.89;100.00;100812.28;4973922;28;20046;-80
2023/09/23 06:40:03;;;;;;;30.13;16.42;;;;;;;12.88;100.00;100808.00;4981888;28;19949;-81
2023/09/23 06:42:29;;;;;;;24.70;17.25;;;;;;;12.87;100.00;100811.75;4991702;28;20059;-81
2023/09/23 06:44:55;;;;;;;23.60;16.40;;;;;;;12.87;100.00;100822.50;4992624;28;20043;-80
2023/09/23 06:47:21;;;;;;;24.40;17.25;;;;;;;12.86;100.00;100832.47;4993754;28;20043;-79
2023/09/23 06:49:46;;;;;;;;;;;;;;;12.87;100.00;100833.25;4982212;28;20035;-79
2023/09/23 06:52:12;;;;;;;19.25;14.55;;;;;;;12.85;100.00;100831.66;4971701;28;19922;-81
2023/09/23 06:54:38;;;;;;;;;;;;;;;12.85;100.00;100831.66;4980578;28;20059;-79
2023/09/23 06:57:03;;;;;;;20.30;13.05;;;;;;;12.84;100.00;100843.50;4963093;28;19920;-80
2023/09/23 06:59:29;;;;;;;16.38;12.60;;;;;;;12.82;100.00;100836.81;4989622;28;20047;-82
2023/09/23 07:01:55;;;;;;;19.10;13.55;;;;;;;12.81;100.00;100833.31;4992736;28;20102;-81
2023/09/23 07:04:21;;;;;;;16.90;11.63;;;;;;;12.80;99.98;100833.59;4992466;28;20082;-80
2023/09/23 07:06:47;;;;;;;16.80;11.60;;;;;;;12.85;100.00;100842.41;5011512;28;20030;-79
2023/09/23 07:09:13;;;;;;;14.63;10.90;;;;;;;12.87;100.00;100838.63;4984885;28;20047;-82
2023/09/23 07:11:39;;;;;;;;;;;;;;;12.92;100.00;100838.59;5005171;28;20043;-81
2023/09/23 07:14:06;;;;;;;16.63;11.32;;;;;;;12.96;100.00;100845.81;4977312;28;19914;-80
2023/09/23 07:16:34;;;;;;;20.88;12.48;;;;;;;13.02;100.00;100847.38;4981151;28;20031;-81
2023/09/23 07:19:00;;;;;;;14.57;10.77;;;;;;;13.08;100.00;100854.31;4979416;28;20035;-81
2023/09/23 07:21:27;;;;;;;15.82;11.10;;;;;;;13.09;100.00;100847.06;4974037;28;20038;-82
2023/09/23 07:23:52;;;;;;;14.77;10.70;;;;;;;13.12;100.00;100863.41;4998976;28;20038;-78
2023/09/23 07:26:21;;;;;;;12.40;9.90;;;;;;;13.14;100.00;100865.84;4991584;28;20047;-79
2023/09/23 07:28:50;;;;;;;10.68;8.60;;;;;;;13.13;100.00;100856.13;4976929;28;20031;-79
2023/09/23 07:31:17;;;;;;;14.32;8.30;;;;;;;13.13;100.00;100865.00;4993047;28;20062;-80
2023/09/23 07:33:43;;;;;;;12.32;9.02;;;;;;;13.18;100.00;100866.06;5011199;28;20106;-79
2023/09/23 07:36:13;;;;;;;9.52;7.20;;;;;;;13.24;99.96;100873.81;4986410;28;20121;-80
2023/09/23 07:38:39;;;;;;;10.93;7.57;;;;;;;13.40;100.00;100866.38;4999043;28;20034;-80
2023/09/23 07:41:07;;;;;;;11.10;8.40;;;;;;;13.57;100.00;100874.03;4993532;28;20030;-78
2023/09/23 07:43:33;;;;;;;6.82;6.13;;;;;;;13.59;100.00;100883.41;4987384;28;20039;-78
2023/09/23 07:46:00;;;;;;;6.82;5.90;;;;;;;13.71;99.15;100880.31;5005165;28;20094;-77
2023/09/23 07:48:26;;;;;;;;;;;;;;;13.87;98.69;100889.81;4991181;28;20037;-79
2023/09/23 07:50:54;;;;;;;6.25;4.78;;;;;;;13.88;97.83;100891.41;4966961;28;19918;-80
2023/09/23 07:53:21;;;;;;;6.88;4.85;;;;;;;13.90;97.92;100888.44;4982612;28;20042;-79
2023/09/23 07:55:48;;;;;;;6.07;4.30;;;;;;;13.89;97.85;100898.41;4990426;28;20039;-78
2023/09/23 07:58:14;;;;;;;5.47;4.03;;;;;;;13.91;98.53;100912.38;4985897;28;20504;-78
2023/09/23 08:00:39;;;;;;;;;;;;;;;13.91;97.42;100917.75;4984863;28;20046;-78
2023/09/23 08:03:06;;;;;;;5.90;3.83;;;;;;;13.96;97.76;100918.81;4980966;28;19922;-79
2023/09/23 08:05:32;;;;;;;;;;;;;;;13.98;97.21;100913.94;4979314;28;20094;-80
2023/09/23 08:07:58;;;;;;;3.45;3.05;;;;;;;13.98;96.87;100924.69;4984019;28;19914;-78
2023/09/23 08:10:23;;;;;;;;;;;;;;;13.98;96.98;100928.19;4963837;28;20066;-78
2023/09/23 08:12:49;;;;;;;4.90;2.80;;;;;;;13.94;97.32;100932.53;4986884;28;19914;-80
2023/09/23 08:15:15;;;;;;;;;;;;;;;13.95;97.55;100942.22;4981299;28;20042;-79
2023/09/23 08:17:40;;;;;;;4.68;2.75;;;;;;;13.99;97.45;100932.47;4951974;28;19955;-77
2023/09/23 08:20:17;;;;;;;;;;;;;;;14.01;97.76;100949.16;4981854;28;20037;-77
2023/09/23 08:22:45;;;;;;;4.82;2.42;;;;;;;14.05;95.98;100942.09;4975205;28;19918;-78
2023/09/23 08:25:11;;;;;;;4.97;3.05;;;;;;;14.20;94.54;100943.81;4962907;28;20038;-77
2023/09/23 08:27:37;;;;;;;4.18;3.20;;;;;;;14.32;96.14;100952.28;4963526;28;20073;-78
2023/09/23 08:30:05;;;;;;;;;;;;;;;14.22;94.60;100960.47;4995144;28;20069;-74
2023/09/23 08:32:30;;;;;;;4.18;3.00;;;;;;;14.29;94.37;100960.91;4958910;28;19976;-78
2023/09/23 08:34:56;;;;;;;;;;;;;;;14.30;94.27;100970.63;4975922;28;20134;-79
2023/09/23 08:37:22;;;;;;;4.50;2.90;;;;;;;14.42;93.16;100968.28;4944599;28;20466;-76
2023/09/23 08:39:47;;;;;;;4.75;2.92;;;;;;;14.56;93.28;100970.31;4976377;28;20214;-79
2023/09/23 08:42:19;;;;;;;;;;;;;;;14.76;94.21;100978.09;4963132;28;20120;-75
2023/09/23 08:44:48;;;;;;;5.80;2.88;;;;;;;14.85;94.32;100978.28;4974650;28;19917;-75
2023/09/23 08:47:14;;;;;;;4.03;3.10;;;;;;;14.85;93.45;100979.06;4972569;28;20046;-76
2023/09/23 08:49:39;;;;;;;;;;;;;;;14.85;93.85;100987.16;4961947;28;20130;-77
2023/09/23 08:52:06;;;;;;;5.20;3.40;;;;;;;14.80;90.86;100991.81;4980175;28;19945;-77
2023/09/23 08:54:33;;;;;;;5.80;3.38;;;;;;;14.88;90.02;100983.88;4958907;28;20045;-75
2023/09/23 08:57:02;;;;;;;3.50;3.15;;;;;;;15.04;88.67;100984.47;4948618;28;20070;-73
2023/09/23 08:59:28;;;;;;;6.68;3.55;;;;;;;15.26;88.50;100992.72;4970903;28;20045;-74
2023/09/23 09:01:55;;;;;;;;;;;;;;;15.50;88.60;100995.28;4957561;28;20035;-74
2023/09/23 09:04:21;;;;;;;4.10;3.35;;;;;;;15.63;87.26;100993.75;4976765;28;20335;-76
2023/09/23 09:06:52;;;;;;;4.10;3.20;;;;;;;15.72;87.31;100992.00;4943618;28;20038;-76
2023/09/23 09:09:18;;;;;;;4.78;4.35;;;;;;;15.76;88.52;101006.47;4978797;28;20070;-77
2023/09/23 09:11:53;;;;;;;5.57;3.30;;;;;;;15.71;87.15;101008.47;4977477;28;20039;-75
2023/09/23 09:14:19;;;;;;;4.25;3.70;;;;;;;15.76;86.66;101008.38;4961190;28;20082;-76
2023/09/23 09:16:45;;;;;;;;;;;;;;;15.71;85.93;101011.97;4976732;28;20515;-77
2023/09/23 09:19:11;;;;;;;7.30;3.65;;;;;;;15.66;85.62;101013.97;4957912;28;19921;-76
2023/09/23 09:21:36;;;;;;;;;;;;;;;15.59;85.65;101016.22;4955334;28;20062;-76
2023/09/23 09:24:04;;;;;;;3.75;3.03;;;;;;;15.54;86.27;101014.41;4976215;28;20013;-77
2023/09/23 09:26:31;;;;;;;4.28;2.85;;;;;;;15.61;84.66;101024.81;4976771;28;20042;-77
2023/09/23 09:28:57;;;;;;;4.82;3.40;;;;;;;15.71;83.51;101021.97;4988319;28;20122;-80
2023/09/23 09:31:25;;;;;;;;;;;;;;;15.79;83.11;101030.19;4979405;28;20039;-77
2023/09/23 09:33:53;;;;;;;5.05;3.60;;;;;;;15.85;87.39;101041.72;4963600;28;19921;-76
2023/09/23 09:36:23;;;;;;;3.85;3.10;;;;;;;15.81;85.58;101038.00;4963211;28;20048;-74
2023/09/23 09:38:51;;;;;;;4.72;2.90;;;;;;;15.80;85.32;101049.91;4981309;28;20043;-76
2023/09/23 09:41:26;;;;;;;3.75;2.50;;;;;;;15.84;83.72;101056.28;4973493;28;20114;-77
2023/09/23 09:43:54;;;;;;;4.07;2.50;;;;;;;15.89;81.09;101061.63;4954143;28;20037;-75
2023/09/23 09:46:20;;;;;;;;;;;;;;;15.97;80.20;101052.03;4976556;28;20034;-77
2023/09/23 09:48:48;;;;;;;3.75;2.60;;;;;;;16.05;81.41;101059.44;4962948;28;19914;-77
2023/09/23 09:51:16;;;;;;;3.58;2.90;;;;;;;16.05;80.83;101054.84;4965285;28;20048;-78
2023/09/23 09:53:45;;;;;;;3.13;2.40;;;;;;;16.01;78.96;101056.53;4954284;28;20041;-77
2023/09/23 09:56:11;;;;;;;4.75;2.72;;;;;;;16.06;79.62;101059.16;4961291;28;20042;-78
2023/09/23 09:58:38;;;;;;;4.47;2.60;;;;;;;16.10;79.97;101073.66;4961224;28;20041;-74
2023/09/23 10:01:04;;;;;;;4.28;2.28;;;;;;;16.01;80.03;101070.03;4943893;28;20194;-73
2023/09/23 10:03:30;;;;;;;2.80;2.25;;;;;;;15.88;80.39;101067.31;4973445;28;20453;-76
2023/09/23 10:06:00;;;;;;;4.88;2.80;;;;;;;15.81;83.36;101063.09;4942868;28;20115;-77
2023/09/23 10:08:35;;;;;;;4.10;2.70;;;;;;;15.78;84.53;101077.22;4992997;28;20192;-81
2023/09/23 10:11:03;;;;;;;3.72;2.60;;;;;;;15.80;84.00;101066.91;4973991;28;20038;-78
2023/09/23 10:13:31;;;;;;;7.75;2.53;;;;;;;15.87;81.17;101068.41;4981377;28;20039;-76
2023/09/23 10:16:17;;;;;;;4.50;2.80;;;;;;;15.97;82.07;101069.03;4970608;28;20035;-79
2023/09/23 10:18:44;;;;;;;7.75;2.67;;;;;;;15.99;83.45;101072.25;4959093;28;20035;-76
2023/09/23 10:21:29;;;;;;;2.90;2.30;;;;;;;16.08;81.59;101072.34;4977933;28;20129;-78
2023/09/23 10:23:56;;;;;;;4.18;2.53;;;;;;;16.10;81.84;101078.25;4980627;28;20041;-76
2023/09/23 10:26:25;;;;;;;4.38;2.78;;;;;;;16.15;83.87;101077.38;4977746;28;20053;-75
2023/09/23 10:29:05;;;;;;;3.65;2.60;;;;;;;16.20;84.25;101090.78;4964324;28;20039;-76
2023/09/23 10:31:32;;;;;;;3.08;2.72;;;;;;;16.06;78.91;101090.78;4979355;28;20053;-78
2023/09/23 10:34:06;;;;;;;3.05;2.55;;;;;;;15.99;82.05;101099.25;4967529;28;20041;-76
2023/09/23 10:36:32;;;;;;;3.42;2.40;;;;;;;15.93;82.17;101088.84;4972320;28;20035;-78
2023/09/23 10:38:59;;;;;;;3.88;2.50;;;;;;;15.96;82.21;101085.53;4980772;28;20109;-76
2023/09/23 10:41:35;;;;;;;2.67;2.10;;;;;;;15.98;81.25;101097.63;4966627;28;20634;-76
2023/09/23 10:44:02;;;;;;;3.45;2.30;;;;;;;16.08;80.52;101091.28;4975285;28;20111;-75
2023/09/23 10:46:29;;;;;;;2.85;2.38;;;;;;;16.07;80.92;101100.47;4980064;28;20027;-77
2023/09/23 10:48:55;;;;;;;4.03;2.50;;;;;;;16.14;81.39;101105.50;4983902;28;20501;-78
2023/09/23 10:51:21;;;;;;;3.45;2.53;;;;;;;16.17;78.79;101105.69;4986125;28;20046;-81
2023/09/23 10:53:50;;;;;;;3.60;2.38;;;;;;;16.31;76.88;101105.69;4982024;28;20074;-78
2023/09/23 10:56:19;;;;;;;2.97;2.10;;;;;;;16.57;75.57;101106.81;4962391;28;20042;-78
2023/09/23 10:58:45;;;;;;;3.00;2.10;;;;;;;16.70;75.17;101107.16;4967336;28;20038;-76
2023/09/23 11:01:11;;;;;;;2.63;2.00;;;;;;;16.77;74.42;101107.53;4963613;28;20030;-78
2023/09/23 11:03:39;;;;;;;3.45;2.25;;;;;;;16.83;73.56;101111.75;4992667;28;20117;-76
2023/09/23 11:06:06;;;;;;;2.95;2.30;;;;;;;16.92;72.98;101105.31;4965849;28;20041;-79
2023/09/23 11:08:32;;;;;;;4.75;2.40;;;;;;;17.06;71.64;101109.91;4960257;28;20031;-76
2023/09/23 11:10:58;;;;;;;;;;;;;;;17.11;70.82;101112.50;4949072;28;20521;-75
2023/09/23 11:13:25;;;;;;;2.45;2.25;;;;;;;17.22;71.23;101123.91;4993576;28;19922;-78
2023/09/23 11:15:51;;;;;;;3.55;2.03;;;;;;;17.15;70.15;101125.13;4989450;28;20121;-78
2023/09/23 11:18:17;;;;;;;;;;;;;;;17.07;69.60;101133.97;4961659;28;20054;-77
2023/09/23 11:20:47;;;;;;;3.67;1.70;;;;;;;17.12;71.69;101133.84;4968908;28;19918;-77
2023/09/23 11:23:13;;;;;;;3.65;1.90;;;;;;;17.12;71.56;101149.28;4956687;28;20049;-77
2023/09/23 11:25:49;;;;;;;3.03;2.15;;;;;;;17.04;70.12;101147.28;4976059;28;20035;-80
2023/09/23 11:28:16;;;;;;;4.68;1.90;;;;;;;16.95;73.28;101152.63;4965078;28;20072;-79
2023/09/23 11:30:42;;;;;;;2.53;1.67;;;;;;;16.92;72.95;101158.63;4963713;28;20038;-77
2023/09/23 11:33:09;;;;;;;3.25;1.98;;;;;;;17.14;72.76;101166.03;4964172;28;20061;-79